createdAt,value
2017-12-04T00:01:12.906Z,32.00
2017-12-04T00:03:40.537Z,32.10
2017-12-04T00:06:08.171Z,32.10
2017-12-04T00:08:35.802Z,32.00
2017-12-04T00:11:03.387Z,32.20
2017-12-04T00:13:31.059Z,32.00
2017-12-04T00:15:58.719Z,31.90
2017-12-04T00:18:26.414Z,32.00
2017-12-04T00:20:54.065Z,32.00
2017-12-04T00:23:21.724Z,32.00
2017-12-04T00:25:49.357Z,32.00
2017-12-04T00:28:17.772Z,32.20
2017-12-04T00:30:45.460Z,32.60
2017-12-04T00:33:13.118Z,32.10
2017-12-04T00:35:40.716Z,32.10
2017-12-04T00:38:09.143Z,32.10
2017-12-04T00:40:37.535Z,32.10
2017-12-04T00:43:05.157Z,32.00
2017-12-04T00:45:32.751Z,31.80
2017-12-04T00:48:00.436Z,32.20
2017-12-04T00:50:28.051Z,32.10
2017-12-04T00:52:56.428Z,32.10
2017-12-04T00:55:24.051Z,32.00
2017-12-04T00:57:51.662Z,32.00
2017-12-04T01:00:20.096Z,32.10
2017-12-04T01:02:47.703Z,32.00
2017-12-04T01:05:15.363Z,32.00
2017-12-04T01:07:43.740Z,31.70
2017-12-04T01:10:11.399Z,31.90
2017-12-04T01:12:39.043Z,31.90
2017-12-04T01:15:07.622Z,32.00
2017-12-04T01:17:35.981Z,32.00
2017-12-04T01:20:03.660Z,31.90
2017-12-04T01:22:32.070Z,32.00
2017-12-04T01:24:59.704Z,32.00
2017-12-04T01:27:28.138Z,31.90
2017-12-04T01:29:55.876Z,31.90
2017-12-04T01:32:23.476Z,31.90
2017-12-04T01:34:51.107Z,32.00
2017-12-04T01:37:18.779Z,32.00
2017-12-04T01:39:46.408Z,32.00
2017-12-04T01:42:14.832Z,32.10
2017-12-04T01:44:42.491Z,32.00
2017-12-04T01:47:10.117Z,32.00
2017-12-04T01:49:37.848Z,31.90
2017-12-04T01:52:05.503Z,31.90
2017-12-04T01:54:33.094Z,31.90
2017-12-04T01:57:00.754Z,31.90
2017-12-04T01:59:29.147Z,32.10
2017-12-04T02:01:56.810Z,31.90
2017-12-04T02:04:24.495Z,31.90
2017-12-04T02:06:52.100Z,31.80
2017-12-04T02:09:19.773Z,32.00
2017-12-04T02:11:47.389Z,31.90
2017-12-04T02:14:15.051Z,31.90
2017-12-04T02:16:42.672Z,32.00
2017-12-04T02:19:11.036Z,32.10
2017-12-04T02:21:39.556Z,32.10
2017-12-04T02:24:07.180Z,32.00
2017-12-04T02:26:35.578Z,32.10
2017-12-04T02:29:04.152Z,31.90
2017-12-04T02:31:31.823Z,31.70
2017-12-04T02:34:00.234Z,32.10
2017-12-04T02:36:27.943Z,32.00
2017-12-04T02:38:55.612Z,32.00
2017-12-04T02:41:23.257Z,32.00
2017-12-04T02:43:50.904Z,31.80
2017-12-04T02:46:18.556Z,31.90
2017-12-04T02:48:46.250Z,31.90
2017-12-04T02:51:13.872Z,31.90
2017-12-04T02:53:41.527Z,32.00
2017-12-04T02:56:09.168Z,31.90
2017-12-04T02:58:36.799Z,31.90
2017-12-04T03:01:04.494Z,32.00
2017-12-04T03:03:32.853Z,32.00
2017-12-04T03:06:00.499Z,32.00
2017-12-04T03:08:28.131Z,32.00
2017-12-04T03:10:55.749Z,32.00
2017-12-04T03:13:24.175Z,32.10
2017-12-04T03:15:51.798Z,32.00
2017-12-04T03:18:19.424Z,32.00
2017-12-04T03:20:47.082Z,32.00
2017-12-04T03:23:14.721Z,32.00
2017-12-04T03:25:42.337Z,32.00
2017-12-04T03:28:09.955Z,32.00
2017-12-04T03:30:37.607Z,32.00
2017-12-04T03:33:05.254Z,32.00
2017-12-04T03:35:33.656Z,32.10
2017-12-04T03:38:01.250Z,32.00
2017-12-04T03:40:28.871Z,32.00
2017-12-04T03:42:56.502Z,32.60
2017-12-04T03:45:24.123Z,32.00
2017-12-04T03:47:51.777Z,32.00
2017-12-04T03:50:19.385Z,32.00
2017-12-04T03:52:47.029Z,32.00
2017-12-04T03:55:16.907Z,32.00
2017-12-04T03:57:44.613Z,32.00
2017-12-04T04:00:12.988Z,32.00
2017-12-04T04:02:41.391Z,32.00
2017-12-04T04:05:08.995Z,31.90
2017-12-04T04:07:36.642Z,32.00
2017-12-04T04:10:04.325Z,31.90
2017-12-04T04:12:31.919Z,31.90
2017-12-04T04:15:00.292Z,32.10
2017-12-04T04:17:27.933Z,31.90
2017-12-04T04:19:55.570Z,31.80
2017-12-04T04:22:23.199Z,31.80
2017-12-04T04:41:54.631Z,32.00
2017-12-04T04:44:22.295Z,31.80
2017-12-04T04:46:49.919Z,32.00
2017-12-04T04:49:17.574Z,32.00
2017-12-04T04:51:45.179Z,32.00
2017-12-04T04:54:12.834Z,32.00
2017-12-04T04:56:41.957Z,32.00
2017-12-04T04:59:10.388Z,32.10
2017-12-04T05:01:38.051Z,32.00
2017-12-04T05:04:05.667Z,31.90
2017-12-04T05:06:34.077Z,33.10
2017-12-04T05:09:01.753Z,32.10
2017-12-04T05:11:29.404Z,31.90
2017-12-04T05:13:57.087Z,32.50
2017-12-04T05:16:24.730Z,32.00
2017-12-04T05:18:52.397Z,32.00
2017-12-04T05:21:20.790Z,32.10
2017-12-04T05:23:48.430Z,31.90
2017-12-04T05:26:16.076Z,32.00
2017-12-04T05:28:44.493Z,32.00
2017-12-04T05:31:12.078Z,32.00
2017-12-04T05:33:39.684Z,31.90
2017-12-04T05:36:07.317Z,31.90
2017-12-04T05:38:35.684Z,32.60
2017-12-04T05:41:03.368Z,31.70
2017-12-04T05:43:31.007Z,31.80
2017-12-04T05:45:58.610Z,31.90
2017-12-04T05:48:26.239Z,31.90
2017-12-04T05:50:54.650Z,32.00
2017-12-04T05:53:22.258Z,32.60
2017-12-04T05:55:49.887Z,31.90
2017-12-04T05:58:17.589Z,31.90
2017-12-04T06:00:45.203Z,31.90
2017-12-04T06:03:12.830Z,31.90
2017-12-04T06:05:40.423Z,31.80
2017-12-04T06:08:08.123Z,31.80
2017-12-04T06:10:35.732Z,31.80
2017-12-04T06:13:03.434Z,31.70
2017-12-04T06:15:31.027Z,31.80
2017-12-04T06:17:58.675Z,31.80
2017-12-04T06:20:26.311Z,31.80
2017-12-04T06:22:53.988Z,31.70
2017-12-04T06:25:21.618Z,31.80
2017-12-04T06:27:49.258Z,31.80
2017-12-04T06:30:17.696Z,31.90
2017-12-04T06:32:45.449Z,31.80
2017-12-04T06:35:13.132Z,31.80
2017-12-04T06:37:40.763Z,31.90
2017-12-04T06:40:08.398Z,31.70
2017-12-04T06:42:36.799Z,32.00
2017-12-04T06:45:04.443Z,31.90
2017-12-04T06:47:32.141Z,31.70
2017-12-04T06:49:59.812Z,31.90
2017-12-04T06:52:27.443Z,31.80
2017-12-04T06:54:55.054Z,31.80
2017-12-04T06:57:22.689Z,31.80
2017-12-04T06:59:50.345Z,31.70
2017-12-04T07:02:17.973Z,31.90
2017-12-04T07:04:46.359Z,31.90
2017-12-04T07:07:14.808Z,31.90
2017-12-04T07:09:42.448Z,31.80
2017-12-04T07:12:10.141Z,31.90
2017-12-04T07:14:37.775Z,31.90
2017-12-04T07:17:05.489Z,31.80
2017-12-04T07:19:33.270Z,31.80
2017-12-04T07:22:01.731Z,31.80
2017-12-04T07:24:29.732Z,31.90
2017-12-04T07:26:57.783Z,31.90
2017-12-04T07:29:25.537Z,31.70
2017-12-04T07:31:53.396Z,32.00
2017-12-04T07:34:21.116Z,31.90
2017-12-04T07:36:48.699Z,31.90
2017-12-04T07:44:55.678Z,31.40
2017-12-04T07:47:23.349Z,31.20
2017-12-04T07:49:51.019Z,44.60
2017-12-04T07:52:18.643Z,55.00
2017-12-04T07:54:52.702Z,67.40
2017-12-04T07:57:21.523Z,71.30
2017-12-04T07:59:49.481Z,71.10
2017-12-04T08:02:17.090Z,73.30
2017-12-04T08:04:44.761Z,74.60
2017-12-04T08:07:12.407Z,75.40
2017-12-04T08:09:40.274Z,75.90
2017-12-04T08:12:07.925Z,77.00
2017-12-04T08:14:36.279Z,78.10
2017-12-04T08:17:03.918Z,78.00
2017-12-04T08:19:32.067Z,78.40
2017-12-04T08:21:59.775Z,78.80
2017-12-04T08:24:27.449Z,78.80
2017-12-04T08:26:55.170Z,79.30
2017-12-04T08:29:22.837Z,78.20
2017-12-04T08:31:51.261Z,79.10
2017-12-04T08:34:19.040Z,79.00
2017-12-04T08:36:47.620Z,79.00
2017-12-04T08:39:15.604Z,79.20
2017-12-04T08:41:43.480Z,79.60
2017-12-04T08:44:11.702Z,79.30
2017-12-04T08:46:40.087Z,79.20
2017-12-04T08:49:09.384Z,79.80
2017-12-04T08:51:37.873Z,79.80
2017-12-04T08:54:06.566Z,79.70
2017-12-04T08:56:34.864Z,79.50
2017-12-04T08:59:02.808Z,79.40
2017-12-04T09:01:31.688Z,79.40
2017-12-04T09:04:00.374Z,79.30
2017-12-04T09:06:29.031Z,79.10
2017-12-04T09:08:58.953Z,79.50
2017-12-04T09:11:27.814Z,79.70
2017-12-04T09:13:55.908Z,79.10
2017-12-04T09:16:23.863Z,79.50
2017-12-04T09:18:52.070Z,80.20
2017-12-04T09:21:20.040Z,80.40
2017-12-04T09:23:47.904Z,80.30
2017-12-04T09:26:16.129Z,80.90
2017-12-04T09:28:43.885Z,79.90
2017-12-04T09:31:12.013Z,79.90
2017-12-04T09:34:05.835Z,80.20
2017-12-04T09:39:20.926Z,80.20
2017-12-04T09:41:49.013Z,80.00
2017-12-04T09:44:17.674Z,80.40
2017-12-04T09:46:46.474Z,80.00
2017-12-04T09:49:14.469Z,80.70
2017-12-04T09:51:44.054Z,80.00
2017-12-04T09:54:12.679Z,80.10
2017-12-04T09:56:40.657Z,80.30
2017-12-04T09:59:10.010Z,81.00
2017-12-04T10:01:39.135Z,79.90
2017-12-04T10:04:11.073Z,80.80
2017-12-04T10:06:40.502Z,80.60
2017-12-04T10:09:09.408Z,80.20
2017-12-04T10:11:39.388Z,80.60
2017-12-04T10:14:08.547Z,80.30
2017-12-04T10:16:37.185Z,80.70
2017-12-04T10:19:06.510Z,80.50
2017-12-04T10:21:36.458Z,80.60
2017-12-04T10:24:06.954Z,80.80
2017-12-04T10:26:37.473Z,80.70
2017-12-04T10:29:07.037Z,80.70
2017-12-04T10:31:36.404Z,80.70
2017-12-04T10:34:05.633Z,79.20
2017-12-04T10:36:36.278Z,79.40
2017-12-04T10:39:10.114Z,79.20
2017-12-04T10:41:39.521Z,79.70
2017-12-04T10:44:10.841Z,80.70
2017-12-04T10:46:44.639Z,79.50
2017-12-04T10:49:14.261Z,79.60
2017-12-04T10:51:43.868Z,79.40
2017-12-04T10:54:13.339Z,79.70
2017-12-04T10:56:43.274Z,79.50
2017-12-04T10:59:14.181Z,79.60
2017-12-04T11:01:45.080Z,78.90
2017-12-04T11:04:17.050Z,78.80
2017-12-04T11:06:45.563Z,79.00
2017-12-04T11:09:13.908Z,79.20
2017-12-04T11:11:42.640Z,79.60
2017-12-04T11:14:11.303Z,79.40
2017-12-04T11:16:39.279Z,79.60
2017-12-04T11:19:07.215Z,79.60
2017-12-04T11:21:35.471Z,79.30
2017-12-04T11:24:04.022Z,79.70
2017-12-04T11:26:32.346Z,79.30
2017-12-04T11:29:00.781Z,79.00
2017-12-04T11:31:29.763Z,79.50
2017-12-04T11:33:58.945Z,80.10
2017-12-04T11:36:27.826Z,79.60
2017-12-04T11:38:55.977Z,80.10
2017-12-04T11:41:24.286Z,80.50
2017-12-04T11:43:52.613Z,80.30
2017-12-04T11:46:20.914Z,79.70
2017-12-04T11:48:49.070Z,79.60
2017-12-04T11:51:18.299Z,79.30
2017-12-04T11:53:46.364Z,80.10
2017-12-04T11:56:14.887Z,79.20
2017-12-04T11:58:42.928Z,79.90
2017-12-04T12:01:14.174Z,79.60
2017-12-04T12:03:42.361Z,79.60
2017-12-04T12:06:10.266Z,79.30
2017-12-04T12:08:38.463Z,79.60
2017-12-04T12:11:08.762Z,79.40
2017-12-04T12:13:37.143Z,79.50
2017-12-04T12:16:06.057Z,79.30
2017-12-04T12:18:38.510Z,79.50
2017-12-04T12:21:06.740Z,80.00
2017-12-04T12:23:35.127Z,80.20
2017-12-04T12:26:05.326Z,80.40
2017-12-04T12:28:33.552Z,80.30
2017-12-04T12:31:01.587Z,80.10
2017-12-04T12:33:29.920Z,79.70
2017-12-04T12:35:59.614Z,79.90
2017-12-04T12:38:30.655Z,80.70
2017-12-04T12:40:59.323Z,80.40
2017-12-04T12:43:27.683Z,80.70
2017-12-04T12:45:55.890Z,80.60
2017-12-04T12:48:24.411Z,80.70
2017-12-04T12:50:52.832Z,80.90
2017-12-04T12:53:20.674Z,80.90
2017-12-04T12:55:49.145Z,81.70
2017-12-04T12:58:16.836Z,81.60
2017-12-04T13:00:44.501Z,81.10
2017-12-04T13:03:12.670Z,81.40
2017-12-04T13:05:41.409Z,81.80
2017-12-04T13:08:09.171Z,82.00
2017-12-04T13:10:37.281Z,82.70
2017-12-04T13:13:05.127Z,82.50
2017-12-04T13:15:37.929Z,83.00
2017-12-04T13:18:06.826Z,83.40
2017-12-04T13:20:34.600Z,83.00
2017-12-04T13:23:02.419Z,82.50
2017-12-04T13:25:30.955Z,82.50
2017-12-04T13:27:58.604Z,82.30
2017-12-04T13:30:27.088Z,82.20
2017-12-04T13:33:07.322Z,82.60
2017-12-04T13:35:47.023Z,82.50
2017-12-04T13:38:15.182Z,82.50
2017-12-04T13:40:44.089Z,82.50
2017-12-04T13:43:11.983Z,82.30
2017-12-04T13:45:39.938Z,82.40
2017-12-04T13:48:07.951Z,82.50
2017-12-04T13:50:36.313Z,82.40
2017-12-04T13:53:04.695Z,82.10
2017-12-04T13:55:33.347Z,82.90
2017-12-04T13:58:01.336Z,82.90
2017-12-04T14:00:29.444Z,83.20
2017-12-04T14:02:57.901Z,82.80
2017-12-04T14:05:25.924Z,82.60
2017-12-04T14:07:54.035Z,82.70
2017-12-04T14:10:22.427Z,82.50
2017-12-04T14:12:51.762Z,82.70
2017-12-04T14:15:21.881Z,82.70
2017-12-04T14:17:50.831Z,82.70
2017-12-04T14:20:20.493Z,82.50
2017-12-04T14:22:50.727Z,82.40
2017-12-04T14:25:18.942Z,82.40
2017-12-04T14:27:47.348Z,82.20
2017-12-04T14:30:16.800Z,82.10
2017-12-04T14:32:45.268Z,82.10
2017-12-04T14:35:12.954Z,82.30
2017-12-04T14:37:41.047Z,82.30
2017-12-04T14:40:08.928Z,82.20
2017-12-04T14:42:36.648Z,82.30
2017-12-04T14:45:04.953Z,82.50
2017-12-04T14:47:33.242Z,82.40
2017-12-04T14:50:01.444Z,82.60
2017-12-04T14:52:29.194Z,82.80
2017-12-04T14:54:57.183Z,82.70
2017-12-04T14:57:25.004Z,82.60
2017-12-04T14:59:52.821Z,82.60
2017-12-04T15:02:21.042Z,82.50
2017-12-04T15:04:49.627Z,82.20
2017-12-04T15:07:18.433Z,82.10
2017-12-04T15:09:47.039Z,82.40
2017-12-04T15:12:15.070Z,82.20
2017-12-04T15:14:45.961Z,82.10
2017-12-04T15:17:14.676Z,82.50
2017-12-04T15:19:43.668Z,81.70
2017-12-04T15:22:11.609Z,81.70
2017-12-04T15:24:52.879Z,81.80
2017-12-04T15:27:21.990Z,81.70
2017-12-04T15:29:51.087Z,81.60
2017-12-04T15:32:18.830Z,81.90
2017-12-04T15:34:47.565Z,82.80
2017-12-04T15:37:15.662Z,82.30
2017-12-04T15:39:44.662Z,82.60
2017-12-04T15:42:12.423Z,82.00
2017-12-04T15:50:21.092Z,82.40
2017-12-04T15:52:49.054Z,82.20
2017-12-04T15:55:17.756Z,81.80
2017-12-04T15:57:45.609Z,81.70
2017-12-04T16:00:13.374Z,82.00
2017-12-04T16:02:41.088Z,82.20
2017-12-04T16:05:08.735Z,82.20
2017-12-04T16:07:38.817Z,82.70
2017-12-04T16:10:09.183Z,82.70
2017-12-04T16:12:39.817Z,82.80
2017-12-04T16:15:08.487Z,82.70
2017-12-04T16:17:36.880Z,82.30
2017-12-04T16:20:06.200Z,82.10
2017-12-04T16:22:34.966Z,82.50
2017-12-04T16:25:04.276Z,82.60
2017-12-04T16:27:34.119Z,82.30
2017-12-04T16:32:38.489Z,82.40
2017-12-04T16:35:07.129Z,82.50
2017-12-04T16:37:35.531Z,82.00
2017-12-04T16:40:04.198Z,82.30
2017-12-04T16:42:32.936Z,82.30
2017-12-04T16:45:01.731Z,82.50
2017-12-04T16:47:30.418Z,82.50
2017-12-04T16:49:59.634Z,82.90
2017-12-04T16:52:29.617Z,83.00
2017-12-04T16:54:59.152Z,83.00
2017-12-04T16:57:27.061Z,83.10
2017-12-04T16:59:54.725Z,82.90
2017-12-04T17:02:22.567Z,82.70
2017-12-04T17:04:50.988Z,82.50
2017-12-04T17:07:18.746Z,82.40
2017-12-04T17:09:46.353Z,82.60
2017-12-04T17:12:15.354Z,82.50
2017-12-04T17:14:44.295Z,82.70
2017-12-04T17:17:12.818Z,82.80
2017-12-04T17:19:42.395Z,84.90
2017-12-04T17:22:12.039Z,82.80
2017-12-04T17:24:44.374Z,83.00
2017-12-04T17:27:14.179Z,82.80
2017-12-04T17:29:44.270Z,82.70
2017-12-04T17:32:14.234Z,82.50
2017-12-04T17:34:43.872Z,83.00
2017-12-04T17:37:14.088Z,83.00
2017-12-04T17:39:44.634Z,83.00
2017-12-04T17:42:14.934Z,83.40
2017-12-04T17:44:44.856Z,83.40
2017-12-04T17:47:14.570Z,83.60
2017-12-04T17:49:44.394Z,83.90
2017-12-04T17:52:14.804Z,83.60
2017-12-04T17:54:44.687Z,84.10
2017-12-04T17:57:14.513Z,83.60
2017-12-04T17:59:43.939Z,83.20
2017-12-04T18:02:13.380Z,83.10
2017-12-04T18:04:43.457Z,83.20
2017-12-04T18:07:13.383Z,83.10
2017-12-04T18:09:43.191Z,82.70
2017-12-04T18:12:10.797Z,85.00
2017-12-04T18:14:38.455Z,82.40
2017-12-04T18:17:06.065Z,82.50
2017-12-04T18:19:33.815Z,82.50
2017-12-04T18:22:01.709Z,82.90
2017-12-04T18:24:29.474Z,82.50
2017-12-04T18:26:57.111Z,82.60
2017-12-04T18:29:24.936Z,82.70
2017-12-04T18:31:52.556Z,82.60
2017-12-04T18:34:20.223Z,82.80
2017-12-04T18:36:48.725Z,82.70
2017-12-04T18:39:16.412Z,82.60
2017-12-04T18:41:44.264Z,82.80
2017-12-04T18:44:12.059Z,82.70
2017-12-04T18:46:39.724Z,82.90
2017-12-04T18:49:07.640Z,83.20
2017-12-04T18:51:36.269Z,83.60
2017-12-04T18:54:04.026Z,83.50
2017-12-04T18:56:31.726Z,82.90
2017-12-04T18:58:59.469Z,83.10
2017-12-04T19:01:29.600Z,83.30
2017-12-04T19:03:57.275Z,83.70
2017-12-04T19:06:25.042Z,83.30
2017-12-04T19:08:53.078Z,83.50
2017-12-04T19:11:20.799Z,83.50
2017-12-04T19:13:48.532Z,83.40
2017-12-04T19:16:16.128Z,83.20
2017-12-04T19:18:43.825Z,83.60
2017-12-04T19:21:11.583Z,83.40
2017-12-04T19:23:39.275Z,83.30
2017-12-04T19:26:06.935Z,83.30
2017-12-04T19:28:34.660Z,83.60
2017-12-04T19:31:03.043Z,83.70
2017-12-04T19:33:30.740Z,83.60
2017-12-04T19:35:58.377Z,83.50
2017-12-04T19:38:26.015Z,83.80
2017-12-04T19:40:53.678Z,83.60
2017-12-04T19:43:21.432Z,84.10
2017-12-04T19:45:49.069Z,83.40
2017-12-04T19:48:16.707Z,83.30
2017-12-04T19:50:44.314Z,83.50
2017-12-04T19:53:12.011Z,83.30
2017-12-04T19:55:40.371Z,83.70
2017-12-04T19:58:08.049Z,83.50
2017-12-04T20:00:36.494Z,83.70
2017-12-04T20:03:04.144Z,83.50
2017-12-04T20:05:31.785Z,83.50
2017-12-04T20:07:59.447Z,83.20
2017-12-04T20:10:27.071Z,83.30
2017-12-04T20:12:55.591Z,83.60
2017-12-04T20:15:24.279Z,83.60
2017-12-04T20:17:52.024Z,83.50
2017-12-04T20:20:19.704Z,83.40
2017-12-04T20:22:47.331Z,83.30
2017-12-04T20:25:16.943Z,83.30
2017-12-04T20:27:44.639Z,83.20
2017-12-04T20:30:13.051Z,83.20
2017-12-04T20:32:40.690Z,83.10
2017-12-04T20:35:08.368Z,83.20
2017-12-04T20:37:36.051Z,83.40
2017-12-04T20:40:03.701Z,83.20
2017-12-04T20:42:31.290Z,82.90
2017-12-04T20:44:59.748Z,83.00
2017-12-04T20:47:27.414Z,82.90
2017-12-04T20:49:55.067Z,82.90
2017-12-04T20:52:22.756Z,83.00
2017-12-04T20:54:51.167Z,83.10
2017-12-04T20:57:18.852Z,83.00
2017-12-04T20:59:46.455Z,82.90
2017-12-04T21:02:17.439Z,83.10
2017-12-04T21:04:45.094Z,83.30
2017-12-04T21:07:12.863Z,82.90
2017-12-04T21:09:52.313Z,82.70
2017-12-04T21:12:20.137Z,82.90
2017-12-04T21:15:00.380Z,83.40
2017-12-04T21:17:35.783Z,85.00
2017-12-04T21:20:03.485Z,83.10
2017-12-04T21:22:31.146Z,83.10
2017-12-04T21:24:58.816Z,83.30
2017-12-04T21:27:26.455Z,83.50
2017-12-04T21:29:54.127Z,82.90
2017-12-04T21:32:21.754Z,82.50
2017-12-04T21:34:49.394Z,82.60
2017-12-04T21:37:17.026Z,82.60
2017-12-04T21:39:44.666Z,82.80
2017-12-04T21:42:12.320Z,82.50
2017-12-04T21:44:39.901Z,82.40
2017-12-04T21:47:07.520Z,82.50
2017-12-04T21:49:35.921Z,82.70
2017-12-04T21:52:03.585Z,82.50
2017-12-04T21:54:31.243Z,82.40
2017-12-04T21:56:58.920Z,82.60
2017-12-04T21:59:26.698Z,82.30
2017-12-04T22:01:54.320Z,82.30
2017-12-04T22:04:22.015Z,82.20
2017-12-04T22:06:49.876Z,82.10
2017-12-04T22:09:17.547Z,82.30
2017-12-04T22:11:45.228Z,82.40
2017-12-04T22:14:12.854Z,82.10
2017-12-04T22:16:40.476Z,82.30
2017-12-04T22:19:09.027Z,82.70
2017-12-04T22:21:36.630Z,82.60
2017-12-04T22:24:04.348Z,82.30
2017-12-04T22:26:32.013Z,82.30
2017-12-04T22:28:59.646Z,82.30
2017-12-04T22:31:27.307Z,82.00
2017-12-04T22:33:54.948Z,81.80
2017-12-04T22:36:22.600Z,82.10
2017-12-04T22:38:50.228Z,81.60
2017-12-04T22:41:18.023Z,81.20
2017-12-04T22:43:45.669Z,82.00
2017-12-04T22:46:14.094Z,81.70
2017-12-04T22:48:41.747Z,81.60
2017-12-04T22:51:09.352Z,81.40
2017-12-04T22:53:36.975Z,81.60
2017-12-04T22:56:04.632Z,81.30
2017-12-04T22:58:33.001Z,82.10
2017-12-04T23:01:00.631Z,82.00
2017-12-04T23:03:28.287Z,81.40
2017-12-04T23:05:55.974Z,81.50
2017-12-04T23:08:24.347Z,82.10
2017-12-04T23:10:52.767Z,82.10
2017-12-04T23:13:20.362Z,82.00
2017-12-04T23:15:48.029Z,82.10
2017-12-04T23:18:15.685Z,82.40
2017-12-04T23:20:43.348Z,82.60
2017-12-04T23:23:10.937Z,82.70
2017-12-04T23:25:39.392Z,82.10
2017-12-04T23:28:07.072Z,82.00
2017-12-04T23:30:34.740Z,81.00
2017-12-04T23:33:03.120Z,81.50
2017-12-04T23:35:30.780Z,81.30
2017-12-04T23:37:59.136Z,81.50
2017-12-04T23:40:26.798Z,81.40
2017-12-04T23:42:54.455Z,81.30
2017-12-04T23:45:22.132Z,81.30
2017-12-04T23:47:49.796Z,81.30
2017-12-04T23:50:17.446Z,81.50
2017-12-04T23:52:45.094Z,82.00
2017-12-04T23:55:12.732Z,81.80
2017-12-04T23:57:40.435Z,81.80
